Fortescue, Missouri
Current Conditions -  °F | °C
As of 9:53 PM on Saturday 22 Nov 2014 (Local Time) from KFNB Reporting Station
Overcast Overcast  
Wind Chill: 55°   Ceiling: 1100
Heat Index: 55°   Visibility: 10mi
Dew Point: 51°   Wind: 13mph
Humidity: 86%   Direction: 180°S
Pressure: 29.65"   Gusts: 22mph
Location:  40.1428°N, 95.3614°W
Report Text: KFNB 230353Z AUTO 18011G19KT 10SM OVC011 13/11 A2965 RMK AO2 SLP040 T01280106
Loading
Personal Weather Stations






























Interactive Weather Map New forecast layout! Learn more

10-Day Weather Forecast

Advertisements
Track Severe Weather on mobile